Time;durP1;ratioP1;P1;durP2;ratioP2;P2;SDS_P1;SDS_P2;PMS_P1;PMS_P2;Temp;Humidity;BMP_temperature;BMP_pressure;BME280_temperature;BME280_humidity;BME280_pressure;Samples;Min_cycle;Max_cycle;Signal;HPM_P1;HPM_P2
2021/10/24 00:00:19;;;;;;;6.15;2.20;;;7.00;60.00;;;;;;6276469;22;20042;-65
2021/10/24 00:02:46;;;;;;;4.03;1.70;;;7.00;60.00;;;;;;6276203;22;20008;-65
2021/10/24 00:05:12;;;;;;;4.60;2.00;;;7.00;59.90;;;;;;6276351;22;19999;-65
2021/10/24 00:07:39;;;;;;;2.50;1.45;;;7.00;60.00;;;;;;6276261;22;19999;-65
2021/10/24 00:10:05;;;;;;;11.80;2.10;;;7.00;60.00;;;;;;6276183;22;20491;-65
2021/10/24 00:12:31;;;;;;;5.45;1.58;;;6.90;60.00;;;;;;6276051;22;20016;-65
2021/10/24 00:14:57;;;;;;;7.05;2.30;;;6.90;60.20;;;;;;6276110;22;20327;-65
2021/10/24 00:17:22;;;;;;;6.20;2.03;;;6.90;60.30;;;;;;6276156;22;20446;-64
2021/10/24 00:19:48;;;;;;;15.25;2.50;;;6.90;60.30;;;;;;6276066;22;19996;-65
2021/10/24 00:22:14;;;;;;;8.02;1.90;;;6.90;60.40;;;;;;6276024;22;20000;-65
2021/10/24 00:24:40;;;;;;;5.25;2.10;;;6.90;60.40;;;;;;6275975;22;20008;-65
2021/10/24 00:27:06;;;;;;;5.38;2.08;;;6.90;60.50;;;;;;6275739;22;20045;-65
2021/10/24 00:29:31;;;;;;;4.88;1.67;;;6.90;60.50;;;;;;6275746;22;20006;-65
2021/10/24 00:31:57;;;;;;;6.65;1.73;;;6.80;60.60;;;;;;6276007;22;20061;-66
2021/10/24 00:34:23;;;;;;;4.00;1.73;;;6.80;60.60;;;;;;6275958;22;19999;-65
2021/10/24 00:36:48;;;;;;;6.57;1.75;;;6.80;60.70;;;;;;6275995;22;19996;-65
2021/10/24 00:39:14;;;;;;;7.07;2.38;;;6.80;60.70;;;;;;6276037;22;20030;-65
2021/10/24 00:41:40;;;;;;;4.22;1.45;;;6.80;60.70;;;;;;6274145;22;20011;-64
2021/10/24 00:44:24;;;;;;;5.20;1.80;;;6.80;60.70;;;;;;6275740;22;20079;-65
2021/10/24 00:46:54;;;;;;;;;;;6.80;60.70;;;;;;6276287;22;20010;-65
2021/10/24 00:49:21;;;;;;;6.47;1.75;;;6.80;60.50;;;;;;6275893;22;19922;-65
2021/10/24 00:51:47;;;;;;;7.60;2.13;;;6.80;60.30;;;;;;6275817;22;20438;-64
2021/10/24 00:54:14;;;;;;;9.85;2.22;;;6.80;60.50;;;;;;6275644;22;20026;-65
2021/10/24 00:56:42;;;;;;;4.50;1.58;;;6.80;60.70;;;;;;6275771;22;20466;-66
2021/10/24 00:59:08;;;;;;;7.45;2.45;;;6.70;60.70;;;;;;6275739;22;20007;-65
2021/10/24 01:01:35;;;;;;;5.82;1.70;;;6.80;60.80;;;;;;6275832;22;19999;-65
2021/10/24 01:04:03;;;;;;;4.40;1.55;;;6.70;60.90;;;;;;6275832;22;20007;-65
2021/10/24 01:06:29;;;;;;;5.55;1.77;;;6.70;60.90;;;;;;6275899;22;20319;-65
2021/10/24 01:08:55;;;;;;;2.25;0.90;;;6.70;60.90;;;;;;6275702;22;20015;-64
2021/10/24 01:11:20;;;;;;;7.35;1.60;;;6.70;60.80;;;;;;6273952;22;20008;-64
2021/10/24 01:13:46;;;;;;;5.05;1.42;;;6.70;60.90;;;;;;6275354;22;20392;-65
2021/10/24 01:16:14;;;;;;;3.63;1.33;;;6.70;60.90;;;;;;6275641;22;20004;-65
2021/10/24 01:18:41;;;;;;;6.53;1.70;;;6.70;60.80;;;;;;6275327;22;20067;-64
2021/10/24 01:21:07;;;;;;;4.97;1.70;;;6.70;61.50;;;;;;6275561;22;20000;-65
2021/10/24 01:23:34;;;;;;;3.63;1.75;;;6.70;60.80;;;;;;6275685;22;20082;-65
2021/10/24 01:25:59;;;;;;;5.40;1.88;;;6.70;60.90;;;;;;6275548;22;20075;-65
2021/10/24 01:28:26;;;;;;;5.63;2.03;;;6.70;61.00;;;;;;6275515;22;20027;-65
2021/10/24 01:30:52;;;;;;;4.18;1.50;;;6.70;61.00;;;;;;6275295;22;20034;-65
2021/10/24 01:33:20;;;;;;;2.78;1.50;;;6.60;60.90;;;;;;6275451;22;20003;-65
2021/10/24 01:35:57;;;;;;;4.30;1.45;;;6.70;61.00;;;;;;6275434;22;20078;-64
2021/10/24 01:38:24;;;;;;;4.28;1.55;;;6.60;61.00;;;;;;6275336;22;20004;-65
2021/10/24 01:40:52;;;;;;;2.78;1.45;;;6.60;60.90;;;;;;6275367;22;20431;-65
2021/10/24 01:43:22;;;;;;;8.60;2.53;;;6.60;61.00;;;;;;6275181;22;20007;-65
2021/10/24 01:45:48;;;;;;;8.68;1.45;;;6.60;61.10;;;;;;6275043;22;20455;-64
2021/10/24 01:48:16;;;;;;;4.30;1.60;;;6.60;61.10;;;;;;6275287;22;20004;-65
2021/10/24 01:50:45;;;;;;;4.03;1.40;;;6.60;61.10;;;;;;6275234;22;20336;-65
2021/10/24 01:53:15;;;;;;;4.15;1.65;;;6.60;61.30;;;;;;6275377;22;20006;-65
2021/10/24 01:55:41;;;;;;;2.95;1.35;;;6.60;61.30;;;;;;6275284;22;20050;-65
2021/10/24 01:58:07;;;;;;;5.40;1.60;;;6.60;61.40;;;;;;6275328;22;20004;-65
2021/10/24 02:00:33;;;;;;;9.43;1.60;;;6.50;61.40;;;;;;6275255;22;20309;-65
2021/10/24 02:02:59;;;;;;;6.15;1.50;;;6.60;61.50;;;;;;6275181;22;20014;-65
2021/10/24 02:05:25;;;;;;;6.55;1.80;;;6.50;61.40;;;;;;6275131;22;20010;-65
2021/10/24 02:07:50;;;;;;;4.95;1.80;;;6.50;61.40;;;;;;6274967;22;20031;-65
2021/10/24 02:10:17;;;;;;;8.18;1.70;;;6.50;61.50;;;;;;6274766;22;20004;-65
2021/10/24 02:12:43;;;;;;;3.25;1.20;;;6.50;61.60;;;;;;6274814;22;20047;-65
2021/10/24 02:15:10;;;;;;;3.53;1.30;;;6.50;61.60;;;;;;6273410;22;20022;-65
2021/10/24 02:17:36;;;;;;;10.95;1.80;;;6.50;61.70;;;;;;6274773;22;20072;-65
2021/10/24 02:20:07;;;;;;;3.28;1.45;;;6.50;61.70;;;;;;6274895;22;20045;-65
2021/10/24 02:22:32;;;;;;;6.00;1.83;;;6.40;61.70;;;;;;6275163;22;20030;-65
2021/10/24 02:24:58;;;;;;;3.85;1.42;;;6.40;61.80;;;;;;6274955;22;20411;-64
2021/10/24 02:27:24;;;;;;;7.57;2.17;;;6.40;62.00;;;;;;6274812;22;20075;-65
2021/10/24 02:29:50;;;;;;;6.57;1.67;;;6.40;62.10;;;;;;6274963;22;20031;-64
2021/10/24 02:32:15;;;;;;;4.10;1.65;;;6.40;62.10;;;;;;6274810;22;20095;-65
2021/10/24 02:34:42;;;;;;;8.98;1.73;;;6.40;62.10;;;;;;6275200;22;20431;-64
2021/10/24 02:37:08;;;;;;;11.35;2.33;;;6.50;62.20;;;;;;6275003;22;19996;-64
2021/10/24 02:39:34;;;;;;;5.00;1.80;;;6.50;62.20;;;;;;6274973;22;20424;-65
2021/10/24 02:42:00;;;;;;;9.32;2.60;;;6.50;62.20;;;;;;6273260;22;20335;-65
2021/10/24 02:44:26;;;;;;;4.75;2.08;;;6.50;62.20;;;;;;6274973;22;19999;-65
2021/10/24 02:46:53;;;;;;;4.60;1.23;;;6.50;62.30;;;;;;6273214;22;20003;-65
2021/10/24 02:49:19;;;;;;;11.23;1.50;;;6.50;62.30;;;;;;6274889;22;20058;-65
2021/10/24 02:51:45;;;;;;;7.50;1.38;;;6.50;62.20;;;;;;6276192;22;20033;-65
2021/10/24 02:54:11;;;;;;;6.28;2.45;;;6.50;62.20;;;;;;6276932;22;20328;-64
2021/10/24 02:56:37;;;;;;;2.50;1.15;;;6.50;62.20;;;;;;6276840;22;20449;-65
2021/10/24 02:59:03;;;;;;;4.45;1.08;;;6.50;62.00;;;;;;6276760;22;20011;-65
2021/10/24 03:01:29;;;;;;;2.97;1.25;;;6.50;61.90;;;;;;6276831;22;20004;-64
2021/10/24 03:03:55;;;;;;;4.70;1.10;;;6.50;62.00;;;;;;6276862;22;20010;-65
2021/10/24 03:06:21;;;;;;;4.35;1.77;;;6.50;62.10;;;;;;6276679;22;20000;-65
2021/10/24 03:08:46;;;;;;;8.05;1.77;;;6.50;61.90;;;;;;6276768;22;20004;-65
2021/10/24 03:11:12;;;;;;;5.00;1.20;;;6.50;61.70;;;;;;6276658;22;20011;-65
2021/10/24 03:13:38;;;;;;;5.18;1.45;;;6.50;61.50;;;;;;6276525;22;20343;-65
2021/10/24 03:16:04;;;;;;;5.13;1.45;;;6.50;61.50;;;;;;6276514;22;20003;-65
2021/10/24 03:18:30;;;;;;;5.38;1.08;;;6.50;61.50;;;;;;6276683;22;20082;-65
2021/10/24 03:20:55;;;;;;;5.88;0.90;;;6.50;61.40;;;;;;6276626;22;20031;-65
2021/10/24 03:23:21;;;;;;;5.60;1.00;;;6.50;61.40;;;;;;6276580;22;20330;-65
2021/10/24 03:25:49;;;;;;;13.43;1.27;;;6.50;61.40;;;;;;6274965;22;20008;-65
2021/10/24 03:28:15;;;;;;;11.23;1.92;;;6.50;61.50;;;;;;6276536;22;20057;-65
2021/10/24 03:30:40;;;;;;;3.08;0.95;;;6.50;61.40;;;;;;6276476;22;20010;-65
2021/10/24 03:33:06;;;;;;;4.15;0.98;;;6.50;61.40;;;;;;6276501;22;20327;-65
2021/10/24 03:35:32;;;;;;;7.25;1.45;;;6.50;61.40;;;;;;6276377;22;20003;-65
2021/10/24 03:37:59;;;;;;;13.40;2.53;;;6.50;61.40;;;;;;6276440;22;20006;-65
2021/10/24 03:40:24;;;;;;;6.57;2.13;;;6.50;61.40;;;;;;6276445;22;20073;-65
2021/10/24 03:42:50;;;;;;;11.60;1.75;;;6.50;61.40;;;;;;6276711;22;20003;-65
2021/10/24 03:45:16;;;;;;;3.95;1.33;;;6.50;61.50;;;;;;6276497;22;20004;-65
2021/10/24 03:47:42;;;;;;;6.78;1.30;;;6.50;61.30;;;;;;6276327;22;20006;-65
2021/10/24 03:50:08;;;;;;;5.13;1.58;;;6.50;61.30;;;;;;6276257;22;20046;-65
2021/10/24 03:52:34;;;;;;;5.97;1.08;;;6.50;61.30;;;;;;6276346;22;19999;-65
2021/10/24 03:55:00;;;;;;;5.90;1.38;;;6.50;61.30;;;;;;6276237;22;20425;-64
2021/10/24 03:57:26;;;;;;;3.78;1.67;;;6.50;61.30;;;;;;6276425;22;20000;-65
2021/10/24 03:59:52;;;;;;;9.25;2.15;;;6.50;61.20;;;;;;6276167;22;20320;-64
2021/10/24 04:02:18;;;;;;;6.03;1.30;;;6.40;61.10;;;;;;6276190;22;20406;-66
2021/10/24 04:04:44;;;;;;;8.52;1.40;;;6.50;61.10;;;;;;6276235;22;20004;-65
2021/10/24 04:07:13;;;;;;;2.88;1.30;;;6.40;61.10;;;;;;6274491;22;20094;-65
2021/10/24 04:09:38;;;;;;;3.17;1.40;;;6.40;61.00;;;;;;6276228;22;20034;-65
2021/10/24 04:12:05;;;;;;;3.80;1.45;;;6.40;61.10;;;;;;6276185;22;20004;-64
2021/10/24 04:14:31;;;;;;;3.60;1.13;;;6.40;61.20;;;;;;6276743;22;20010;-65
2021/10/24 04:16:57;;;;;;;7.38;1.58;;;6.40;61.20;;;;;;6276488;22;20327;-64
2021/10/24 04:19:23;;;;;;;5.95;1.50;;;6.40;61.20;;;;;;6276481;22;20003;-65
2021/10/24 04:21:48;;;;;;;8.65;1.58;;;6.40;61.10;;;;;;6276013;22;20007;-65
2021/10/24 04:24:14;;;;;;;8.48;1.90;;;6.40;61.20;;;;;;6275877;22;20046;-65
2021/10/24 04:26:40;;;;;;;9.10;1.40;;;6.30;61.20;;;;;;6276102;22;20074;-65
2021/10/24 04:29:05;;;;;;;7.15;1.13;;;6.30;61.20;;;;;;6275898;22;20431;-65
2021/10/24 04:31:31;;;;;;;3.08;1.27;;;6.30;61.10;;;;;;6275908;22;20326;-65
2021/10/24 04:33:57;;;;;;;3.63;1.08;;;6.30;61.20;;;;;;6275945;22;20003;-65
2021/10/24 04:36:23;;;;;;;4.55;1.33;;;6.30;61.30;;;;;;6275784;22;20071;-65
2021/10/24 04:38:49;;;;;;;10.82;1.70;;;6.30;61.40;;;;;;6275819;22;19996;-65
2021/10/24 04:41:15;;;;;;;4.18;1.42;;;6.30;61.40;;;;;;6275916;22;20403;-65
2021/10/24 04:43:41;;;;;;;3.75;1.20;;;6.30;61.40;;;;;;6275755;22;19999;-65
2021/10/24 04:46:07;;;;;;;16.60;1.75;;;6.30;61.30;;;;;;6275893;22;20004;-65
2021/10/24 04:48:33;;;;;;;6.43;1.35;;;6.30;61.40;;;;;;6274253;22;20007;-65
2021/10/24 04:50:59;;;;;;;5.53;1.27;;;6.20;61.40;;;;;;6275764;22;20004;-65
2021/10/24 04:53:25;;;;;;;5.93;1.52;;;6.20;61.40;;;;;;6275646;22;20015;-65
2021/10/24 04:55:51;;;;;;;5.03;1.48;;;6.20;61.40;;;;;;6275698;22;19999;-65
2021/10/24 04:58:17;;;;;;;5.10;1.50;;;6.20;61.40;;;;;;6275760;22;19999;-64
2021/10/24 05:00:43;;;;;;;6.53;1.50;;;6.20;61.40;;;;;;6275519;22;20035;-64
2021/10/24 05:03:09;;;;;;;2.92;1.10;;;6.20;61.30;;;;;;6275659;22;20412;-65
2021/10/24 05:05:34;;;;;;;4.30;1.98;;;6.20;61.30;;;;;;6275659;22;20070;-65
2021/10/24 05:08:00;;;;;;;3.10;1.58;;;6.20;61.30;;;;;;6275705;22;20007;-65
2021/10/24 05:10:26;;;;;;;5.78;1.60;;;6.20;61.20;;;;;;6275499;22;20025;-65
2021/10/24 05:12:52;;;;;;;2.50;1.10;;;6.20;61.20;;;;;;6273434;22;20390;-64
2021/10/24 05:15:19;;;;;;;6.75;1.27;;;6.20;61.10;;;;;;6275231;22;20049;-64
2021/10/24 05:17:45;;;;;;;5.15;1.38;;;6.20;61.10;;;;;;6275733;22;20004;-65
2021/10/24 05:20:11;;;;;;;3.63;1.35;;;6.20;61.00;;;;;;6275902;22;20003;-65
2021/10/24 05:22:37;;;;;;;5.35;1.10;;;6.10;60.90;;;;;;6275366;22;20512;-64
2021/10/24 05:25:04;;;;;;;5.13;1.20;;;6.20;61.00;;;;;;6275474;22;20007;-65
2021/10/24 05:27:30;;;;;;;3.60;1.25;;;6.20;61.00;;;;;;6275377;22;20011;-65
2021/10/24 05:29:56;;;;;;;6.90;2.65;;;6.10;61.00;;;;;;6275451;22;20350;-65
2021/10/24 05:32:22;;;;;;;13.68;4.78;;;6.10;61.00;;;;;;6275313;22;20000;-65
2021/10/24 05:34:48;;;;;;;24.13;6.75;;;6.10;61.00;;;;;;6275548;22;20000;-65
2021/10/24 05:37:14;;;;;;;15.50;5.43;;;6.20;61.10;;;;;;6275785;22;20003;-64
2021/10/24 05:39:39;;;;;;;27.77;7.68;;;6.10;61.10;;;;;;6275142;22;20000;-65
2021/10/24 05:42:05;;;;;;;21.63;6.32;;;6.10;61.10;;;;;;6275298;22;20062;-65
2021/10/24 05:44:31;;;;;;;19.20;5.38;;;6.10;61.10;;;;;;6275544;22;20003;-65
2021/10/24 05:46:57;;;;;;;18.40;5.70;;;6.10;61.20;;;;;;6275332;22;20004;-65
2021/10/24 05:49:23;;;;;;;11.70;4.57;;;6.10;61.20;;;;;;6275254;22;20070;-65
2021/10/24 05:51:49;;;;;;;15.68;4.05;;;6.10;61.20;;;;;;6275020;22;20003;-65
2021/10/24 05:54:15;;;;;;;15.25;4.05;;;6.10;61.30;;;;;;6275420;22;19999;-65
2021/10/24 05:56:41;;;;;;;9.60;3.50;;;6.10;61.30;;;;;;6275275;22;20053;-64
2021/10/24 05:59:07;;;;;;;12.68;4.13;;;6.10;61.30;;;;;;6275360;22;20003;-64
2021/10/24 06:01:32;;;;;;;16.13;4.03;;;6.10;61.30;;;;;;6275303;22;20403;-65
2021/10/24 06:03:59;;;;;;;8.88;2.97;;;6.20;61.50;;;;;;6275146;22;20003;-65
2021/10/24 06:06:25;;;;;;;8.80;2.70;;;6.10;61.60;;;;;;6275243;22;20011;-65
2021/10/24 06:08:53;;;;;;;7.40;2.17;;;6.20;61.70;;;;;;6275408;22;20007;-65
2021/10/24 06:13:47;;;;;;;6.10;2.40;;;6.20;61.90;;;;;;6275119;22;20398;-65
2021/10/24 06:16:13;;;;;;;6.68;2.20;;;6.30;62.00;;;;;;6275056;22;20024;-65
2021/10/24 06:18:39;;;;;;;5.55;2.47;;;6.30;62.10;;;;;;6275207;22;20034;-65
2021/10/24 06:21:06;;;;;;;9.43;2.15;;;6.40;62.10;;;;;;6275250;22;20000;-65
2021/10/24 06:23:32;;;;;;;10.38;2.85;;;6.40;62.50;;;;;;6275211;22;20007;-65
2021/10/24 06:25:58;;;;;;;4.63;1.55;;;6.40;62.20;;;;;;6274233;22;20390;-65
2021/10/24 06:28:24;;;;;;;6.22;2.67;;;6.50;62.30;;;;;;6277363;22;20004;-65
2021/10/24 06:30:50;;;;;;;4.63;2.00;;;6.60;62.40;;;;;;6277040;22;20034;-65
2021/10/24 06:33:16;;;;;;;17.17;2.97;;;6.60;62.40;;;;;;6277082;22;20067;-65
2021/10/24 06:35:42;;;;;;;8.30;2.65;;;6.70;62.50;;;;;;6277069;22;20000;-65
2021/10/24 06:38:07;;;;;;;4.28;1.95;;;6.80;62.40;;;;;;6277100;22;19996;-65
2021/10/24 06:40:33;;;;;;;5.65;1.60;;;6.90;62.20;;;;;;6277017;22;20008;-65
2021/10/24 06:42:59;;;;;;;8.05;2.38;;;7.00;62.10;;;;;;6277110;22;20071;-65
2021/10/24 06:45:25;;;;;;;5.50;1.75;;;7.20;61.90;;;;;;6277097;22;20026;-65
2021/10/24 06:47:51;;;;;;;4.03;1.45;;;7.30;61.70;;;;;;6277087;22;20065;-65
2021/10/24 06:50:17;;;;;;;3.92;1.40;;;7.40;61.40;;;;;;6276940;22;20004;-65
2021/10/24 06:52:43;;;;;;;3.90;1.92;;;7.60;61.20;;;;;;6277098;22;20006;-65
2021/10/24 06:55:09;;;;;;;8.23;1.85;;;7.70;60.90;;;;;;6276989;22;19995;-65
2021/10/24 06:57:52;;;;;;;5.90;2.00;;;7.90;60.60;;;;;;6277026;22;20070;-65
2021/10/24 07:00:20;;;;;;;8.43;2.05;;;8.00;59.90;;;;;;6276976;22;20007;-66
2021/10/24 07:02:46;;;;;;;4.93;1.77;;;8.20;59.60;;;;;;6276962;22;20003;-65
2021/10/24 07:05:12;;;;;;;5.30;1.63;;;8.30;59.40;;;;;;6276878;22;20074;-65
2021/10/24 07:07:38;;;;;;;4.05;1.27;;;8.40;59.10;;;;;;6276790;22;20447;-65
2021/10/24 07:10:05;;;;;;;4.75;1.40;;;8.60;58.50;;;;;;6276719;22;19992;-65
2021/10/24 07:12:31;;;;;;;5.53;1.60;;;8.70;58.20;;;;;;6276469;22;20008;-65
2021/10/24 07:14:57;;;;;;;3.00;1.50;;;8.80;58.00;;;;;;6276691;22;20000;-64
2021/10/24 07:17:23;;;;;;;3.97;1.30;;;9.00;57.80;;;;;;6276577;22;20000;-64
2021/10/24 07:19:48;;;;;;;6.53;1.60;;;9.10;57.60;;;;;;6276583;22;20000;-64
2021/10/24 07:22:15;;;;;;;6.35;1.48;;;9.20;57.50;;;;;;6276501;22;20419;-64
2021/10/24 07:24:41;;;;;;;3.00;1.30;;;9.30;57.20;;;;;;6276782;22;20050;-64
2021/10/24 07:27:06;;;;;;;10.55;2.35;;;9.40;56.90;;;;;;6276794;22;20000;-64
2021/10/24 07:29:33;;;;;;;4.85;1.48;;;9.50;56.60;;;;;;6276695;22;20475;-64
2021/10/24 07:31:58;;;;;;;9.68;2.15;;;9.70;56.20;;;;;;6276698;22;20493;-64
2021/10/24 07:34:25;;;;;;;6.63;1.90;;;9.80;56.20;;;;;;6277237;22;20004;-64
2021/10/24 07:36:51;;;;;;;5.30;1.88;;;9.90;56.10;;;;;;6277381;22;20011;-64
2021/10/24 07:39:17;;;;;;;8.27;2.00;;;10.00;55.70;;;;;;6277583;22;19996;-64
2021/10/24 07:41:46;;;;;;;4.30;1.65;;;10.00;55.30;;;;;;6277407;22;20007;-64
2021/10/24 07:44:17;;;;;;;3.90;1.67;;;10.10;55.60;;;;;;6277284;22;20004;-65
2021/10/24 07:46:43;;;;;;;5.55;2.35;;;10.30;55.50;;;;;;6277138;22;20007;-64
2021/10/24 07:49:09;;;;;;;8.38;1.70;;;10.30;55.40;;;;;;6277409;22;20004;-65
2021/10/24 07:51:35;;;;;;;3.40;1.48;;;10.40;55.10;;;;;;6277373;22;20049;-65
2021/10/24 07:54:05;;;;;;;3.67;1.65;;;10.50;55.00;;;;;;6277387;22;20327;-65
2021/10/24 07:56:38;;;;;;;6.90;1.65;;;10.60;54.50;;;;;;6277526;22;20324;-65
2021/10/24 07:59:04;;;;;;;5.68;1.83;;;10.60;54.50;;;;;;6275805;22;20010;-66
2021/10/24 08:01:33;;;;;;;12.27;1.85;;;10.80;53.60;;;;;;6277377;22;20057;-65
2021/10/24 08:03:59;;;;;;;11.05;2.38;;;10.80;53.20;;;;;;6276522;22;20062;-65
2021/10/24 08:06:25;;;;;;;11.15;2.25;;;10.90;53.30;;;;;;6276066;22;20004;-66
2021/10/24 08:08:52;;;;;;;5.85;1.92;;;11.00;53.50;;;;;;6276400;22;20079;-65
2021/10/24 08:11:17;;;;;;;6.15;2.28;;;11.00;53.50;;;;;;6276405;22;20436;-65
2021/10/24 08:13:43;;;;;;;7.75;1.65;;;11.10;52.50;;;;;;6276339;22;20026;-66
2021/10/24 08:16:10;;;;;;;7.07;1.70;;;11.20;52.50;;;;;;6276680;22;20434;-65
2021/10/24 08:18:35;;;;;;;5.20;1.27;;;11.30;52.20;;;;;;6276954;22;20482;-66
2021/10/24 08:21:01;;;;;;;4.57;1.48;;;11.40;52.70;;;;;;6277095;22;20000;-66
2021/10/24 08:23:28;;;;;;;6.05;1.70;;;11.50;52.60;;;;;;6277083;22;20004;-66
2021/10/24 08:25:55;;;;;;;8.25;1.77;;;11.50;52.60;;;;;;6277150;22;20007;-65
2021/10/24 08:28:21;;;;;;;4.80;1.77;;;11.60;52.30;;;;;;6276837;22;20082;-65
2021/10/24 08:30:48;;;;;;;3.22;1.60;;;11.70;52.20;;;;;;6276609;22;20031;-66
2021/10/24 08:33:14;;;;;;;5.57;1.88;;;11.80;52.10;;;;;;6276439;22;20000;-65
2021/10/24 08:35:40;;;;;;;5.80;1.98;;;11.80;52.10;;;;;;6277142;22;19995;-65
2021/10/24 08:38:06;;;;;;;4.80;1.33;;;11.90;51.50;;;;;;6276820;22;20006;-66
2021/10/24 08:40:32;;;;;;;11.70;2.28;;;12.00;51.30;;;;;;6277044;22;20003;-65
2021/10/24 08:43:03;;;;;;;7.63;1.55;;;12.00;51.10;;;;;;6276725;22;20384;-66
2021/10/24 08:45:29;;;;;;;4.53;1.42;;;12.10;51.00;;;;;;6277026;22;20000;-65
2021/10/24 08:47:57;;;;;;;5.43;1.70;;;12.10;50.80;;;;;;6276274;22;20003;-65
2021/10/24 08:50:22;;;;;;;4.82;1.50;;;12.20;50.60;;;;;;6276559;22;19992;-65
2021/10/24 08:52:52;;;;;;;7.75;2.00;;;12.20;50.70;;;;;;6276885;22;20019;-65
2021/10/24 08:55:18;;;;;;;4.43;1.70;;;12.30;50.70;;;;;;6277269;22;20003;-66
2021/10/24 08:57:47;;;;;;;6.18;1.98;;;12.40;50.60;;;;;;6276919;22;20489;-65
2021/10/24 09:00:13;;;;;;;6.25;1.60;;;12.40;50.70;;;;;;6276789;22;20008;-65
2021/10/24 09:03:09;;;;;;;6.10;1.90;;;12.50;50.40;;;;;;6276260;22;20053;-66
2021/10/24 09:05:41;;;;;;;4.05;1.60;;;12.50;50.50;;;;;;6276683;22;20008;-66
2021/10/24 09:08:08;;;;;;;7.15;1.92;;;12.60;50.30;;;;;;6276699;22;20431;-66
2021/10/24 09:10:48;;;;;;;8.20;3.20;;;12.60;50.10;;;;;;6276565;22;20070;-65
2021/10/24 09:13:19;;;;;;;8.73;2.40;;;12.70;50.00;;;;;;6276327;22;20012;-65
2021/10/24 09:15:54;;;;;;;4.57;2.13;;;12.80;50.10;;;;;;6276372;22;20118;-65
2021/10/24 09:18:32;;;;;;;7.03;1.85;;;12.80;50.50;;;;;;6274995;22;19999;-66
2021/10/24 09:21:20;;;;;;;6.28;2.08;;;12.90;50.20;;;;;;6276688;22;20070;-66
2021/10/24 09:23:59;;;;;;;10.60;3.20;;;12.90;49.90;;;;;;6274200;22;19999;-66
2021/10/24 09:26:27;;;;;;;6.88;2.47;;;13.00;50.00;;;;;;6275167;22;20053;-65
2021/10/24 09:29:09;;;;;;;7.32;2.40;;;13.10;50.30;;;;;;6275200;22;20003;-66
2021/10/24 09:31:44;;;;;;;6.18;2.10;;;13.10;49.70;;;;;;6274969;22;20004;-65
2021/10/24 09:34:21;;;;;;;7.05;2.58;;;13.10;49.90;;;;;;6274629;22;20004;-66
2021/10/24 09:36:58;;;;;;;8.20;3.10;;;13.20;49.60;;;;;;6275021;22;20257;-66
2021/10/24 09:39:29;;;;;;;7.85;3.22;;;13.30;49.70;;;;;;6275148;22;20027;-66
2021/10/24 09:42:16;;;;;;;8.20;2.65;;;13.30;49.30;;;;;;6274955;22;20007;-65
2021/10/24 09:45:05;;;;;;;9.20;2.92;;;13.30;49.40;;;;;;6275168;22;20000;-66
2021/10/24 09:47:39;;;;;;;8.80;3.67;;;13.40;49.40;;;;;;6274977;22;20011;-66
2021/10/24 09:50:08;;;;;;;6.32;2.42;;;13.40;48.90;;;;;;6275019;22;20476;-66
2021/10/24 09:52:35;;;;;;;8.32;2.72;;;13.50;49.10;;;;;;6274871;22;20419;-65
2021/10/24 09:55:02;;;;;;;9.75;3.97;;;13.50;49.30;;;;;;6274565;22;20419;-66
2021/10/24 09:57:28;;;;;;;9.65;2.97;;;13.60;48.90;;;;;;6273623;22;20438;-66
2021/10/24 09:59:55;;;;;;;9.95;2.20;;;13.60;49.10;;;;;;6275291;22;20027;-65
2021/10/24 10:02:24;;;;;;;6.57;2.65;;;13.70;49.10;;;;;;6275783;22;20296;-66
2021/10/24 10:04:50;;;;;;;6.75;2.63;;;13.70;49.50;;;;;;6273349;22;20004;-65
2021/10/24 10:07:21;;;;;;;6.53;2.15;;;13.80;49.50;;;;;;6275057;22;20262;-65
2021/10/24 10:09:47;;;;;;;7.93;2.20;;;13.90;49.40;;;;;;6274999;22;20000;-65
2021/10/24 10:12:20;;;;;;;12.10;3.33;;;13.90;48.90;;;;;;6274698;22;20004;-65
2021/10/24 10:14:48;;;;;;;9.50;3.00;;;14.00;48.90;;;;;;6274933;22;20004;-65
2021/10/24 10:17:19;;;;;;;3.75;1.77;;;14.00;49.00;;;;;;6274824;22;20002;-65
2021/10/24 10:19:47;;;;;;;9.27;2.58;;;14.10;48.70;;;;;;6275120;22;20049;-65
2021/10/24 10:22:22;;;;;;;10.25;3.42;;;14.10;48.70;;;;;;6274862;22;20498;-65
2021/10/24 10:24:55;;;;;;;11.75;2.97;;;14.20;48.50;;;;;;6275044;22;20000;-66
2021/10/24 10:27:27;;;;;;;7.57;2.05;;;14.20;47.40;;;;;;6274704;22;20004;-66
2021/10/24 10:30:00;;;;;;;5.97;2.55;;;14.20;47.50;;;;;;6274722;22;20030;-65
2021/10/24 10:32:35;;;;;;;5.38;1.90;;;14.30;47.30;;;;;;6274969;22;20006;-66
2021/10/24 10:35:15;;;;;;;6.97;2.10;;;14.30;46.80;;;;;;6275325;22;20003;-65
2021/10/24 10:37:50;;;;;;;5.57;2.20;;;14.40;47.20;;;;;;6275281;22;20006;-66
2021/10/24 10:40:22;;;;;;;5.55;1.73;;;14.50;46.90;;;;;;6275268;22;20479;-66
2021/10/24 10:43:11;;;;;;;3.40;1.23;;;14.60;46.70;;;;;;6275192;22;20002;-66
2021/10/24 10:45:38;;;;;;;3.25;1.30;;;14.60;46.80;;;;;;6275074;22;20011;-66
2021/10/24 10:48:21;;;;;;;4.75;1.77;;;14.70;46.30;;;;;;6274890;22;19996;-66
2021/10/24 10:50:48;;;;;;;3.42;1.48;;;14.80;46.40;;;;;;6274304;22;20004;-65
2021/10/24 10:53:19;;;;;;;4.70;1.35;;;14.80;45.50;;;;;;6274837;22;19995;-66
2021/10/24 10:56:03;;;;;;;7.13;1.88;;;14.90;45.90;;;;;;6274549;22;20075;-66
2021/10/24 10:58:46;;;;;;;5.45;1.80;;;14.90;46.00;;;;;;6274901;22;19996;-66
2021/10/24 11:01:28;;;;;;;5.45;2.10;;;15.00;45.20;;;;;;6274740;22;20027;-66
2021/10/24 11:03:58;;;;;;;4.32;1.60;;;15.00;45.30;;;;;;6274597;22;20004;-65
2021/10/24 11:06:27;;;;;;;4.85;1.65;;;15.10;45.10;;;;;;6274720;22;19999;-66
2021/10/24 11:08:56;;;;;;;4.75;1.40;;;15.10;45.00;;;;;;6274712;22;20003;-66
2021/10/24 11:11:40;;;;;;;4.63;1.65;;;15.10;44.80;;;;;;6274773;22;20370;-66
2021/10/24 11:14:12;;;;;;;5.70;1.85;;;15.30;45.40;;;;;;6276375;22;20486;-65
2021/10/24 11:16:46;;;;;;;4.63;1.75;;;15.30;44.90;;;;;;6276408;22;19996;-65
2021/10/24 11:22:11;;;;;;;5.68;1.45;;;15.40;44.70;;;;;;6276640;22;20015;-66
2021/10/24 11:24:43;;;;;;;3.22;1.45;;;15.50;44.40;;;;;;6274700;22;20011;-66
2021/10/24 11:27:15;;;;;;;9.30;2.38;;;15.50;44.60;;;;;;6276353;22;20000;-66
2021/10/24 11:29:59;;;;;;;5.20;1.55;;;15.60;44.40;;;;;;6276416;22;20117;-66
2021/10/24 11:32:34;;;;;;;4.00;1.60;;;15.60;44.30;;;;;;6276083;22;20003;-66
2021/10/24 11:35:17;;;;;;;3.15;1.20;;;15.70;44.10;;;;;;6276446;22;20004;-66
2021/10/24 11:37:52;;;;;;;10.00;2.03;;;15.80;44.80;;;;;;6276321;22;20040;-66
2021/10/24 11:40:21;;;;;;;4.57;1.50;;;15.80;44.50;;;;;;6276384;22;20046;-66
2021/10/24 11:43:12;;;;;;;4.60;1.55;;;15.90;44.10;;;;;;6276110;22;20000;-65
2021/10/24 11:45:45;;;;;;;4.15;1.42;;;15.90;44.10;;;;;;6276460;22;20035;-66
2021/10/24 11:48:18;;;;;;;6.32;1.98;;;16.00;43.60;;;;;;6276303;22;20354;-66
2021/10/24 11:50:51;;;;;;;6.47;1.67;;;16.00;43.20;;;;;;6276322;22;20035;-66
2021/10/24 11:53:24;;;;;;;7.68;1.30;;;16.10;42.90;;;;;;6276218;22;20010;-65
2021/10/24 11:55:53;;;;;;;2.03;1.02;;;16.10;42.20;;;;;;6274252;22;20004;-66
2021/10/24 12:01:10;;;;;;;4.93;1.27;;;16.20;41.40;;;;;;6286444;22;20312;-66
2021/10/24 12:03:38;;;;;;;3.30;1.33;;;16.30;41.40;;;;;;6276341;22;20087;-66
2021/10/24 12:06:05;;;;;;;4.03;1.23;;;16.30;41.90;;;;;;6275830;22;19999;-66
2021/10/24 12:08:51;;;;;;;2.67;1.08;;;16.40;42.50;;;;;;6276192;22;20003;-66
2021/10/24 12:11:37;;;;;;;5.28;1.83;;;16.40;41.80;;;;;;6275909;22;20057;-66
2021/10/24 12:14:03;;;;;;;6.35;1.80;;;16.50;40.50;;;;;;6275769;22;20012;-65
2021/10/24 12:16:33;;;;;;;5.35;2.17;;;16.50;39.80;;;;;;6275764;22;20045;-65
2021/10/24 12:19:33;;;;;;;5.70;2.55;;;16.60;40.10;;;;;;6276319;22;20423;-65
2021/10/24 12:22:07;;;;;;;4.53;1.80;;;16.70;40.50;;;;;;6274531;22;20010;-65
2021/10/24 12:24:48;;;;;;;3.38;1.40;;;16.70;39.10;;;;;;6273385;22;20098;-66
2021/10/24 12:27:31;;;;;;;8.40;2.30;;;16.70;39.20;;;;;;6275384;22;20143;-66
2021/10/24 12:30:01;;;;;;;5.47;2.05;;;16.80;39.50;;;;;;6275843;22;20036;-65
2021/10/24 12:32:28;;;;;;;5.53;2.28;;;16.80;39.60;;;;;;6275379;22;20010;-66
2021/10/24 12:35:20;;;;;;;11.65;2.20;;;16.80;39.40;;;;;;6275912;22;20078;-65
2021/10/24 12:38:00;;;;;;;5.03;1.90;;;16.80;39.70;;;;;;6268661;22;20082;-66
2021/10/24 12:40:29;;;;;;;3.53;1.73;;;16.80;39.90;;;;;;6275659;22;19996;-66
2021/10/24 12:43:12;;;;;;;4.95;1.70;;;16.90;39.50;;;;;;6275780;22;20026;-66
2021/10/24 12:45:52;;;;;;;9.50;2.47;;;16.90;40.00;;;;;;6275690;22;19996;-66
2021/10/24 12:48:19;;;;;;;6.18;2.22;;;16.80;40.00;;;;;;6275446;22;19996;-66
2021/10/24 12:50:46;;;;;;;7.82;2.38;;;16.90;39.80;;;;;;6274793;22;20004;-66
2021/10/24 12:53:15;;;;;;;11.05;2.08;;;16.80;39.90;;;;;;6275598;22;20003;-68
2021/10/24 12:55:59;;;;;;;6.75;2.33;;;16.90;39.50;;;;;;6275596;22;20424;-67
2021/10/24 12:58:25;;;;;;;5.30;2.17;;;16.80;39.70;;;;;;6275191;22;20387;-67
2021/10/24 13:00:50;;;;;;;5.75;2.13;;;16.80;39.70;;;;;;6275465;22;20031;-67
2021/10/24 13:03:16;;;;;;;7.90;2.40;;;16.80;39.80;;;;;;6275591;22;20000;-68
2021/10/24 13:05:42;;;;;;;7.28;2.40;;;16.80;39.60;;;;;;6275488;22;20395;-67
2021/10/24 13:08:08;;;;;;;8.00;2.47;;;16.80;39.40;;;;;;6275620;22;20403;-67